createdAt,value
2018-06-18T14:46:11.113Z,24.00
2018-06-18T14:47:10.972Z,24.00
2018-06-18T14:48:11.804Z,20.00
2018-06-18T14:49:12.514Z,28.00
2018-06-18T14:50:11.720Z,28.00
2018-06-18T14:51:11.350Z,28.00
2018-06-18T14:52:10.820Z,28.00
2018-06-18T14:53:11.051Z,32.00
2018-06-18T14:54:12.291Z,36.00
2018-06-18T14:55:10.707Z,40.00
2018-06-18T14:56:10.652Z,40.00
2018-06-18T14:57:12.523Z,48.00
2018-06-18T14:58:10.565Z,60.00
2018-06-18T14:59:10.578Z,48.00
2018-06-18T15:00:10.486Z,20.00
2018-06-18T15:01:10.466Z,44.00
2018-06-18T15:02:10.405Z,48.00
2018-06-18T15:03:10.327Z,52.00
2018-06-18T15:04:10.681Z,48.00
2018-06-18T15:05:10.324Z,48.00
2018-06-18T15:06:10.223Z,40.00
2018-06-18T15:07:10.353Z,44.00
2018-06-18T15:08:10.154Z,48.00
2018-06-18T15:09:10.108Z,48.00
2018-06-18T15:10:10.522Z,64.00
2018-06-18T15:11:10.068Z,60.00
2018-06-18T15:12:10.210Z,60.00
2018-06-18T15:13:10.138Z,60.00
2018-06-18T15:14:09.960Z,56.00
2018-06-18T15:15:09.882Z,56.00
2018-06-18T15:16:09.773Z,56.00
2018-06-18T15:17:09.770Z,56.00
2018-06-18T15:18:09.585Z,56.00
2018-06-18T15:19:09.668Z,56.00
2018-06-18T15:20:09.504Z,52.00
2018-06-18T15:21:09.542Z,56.00
2018-06-18T15:22:09.613Z,60.00
2018-06-18T15:23:09.484Z,60.00
2018-06-18T15:24:09.577Z,64.00
2018-06-18T15:25:09.474Z,68.00
2018-06-18T15:26:09.387Z,72.00
2018-06-18T15:27:09.212Z,84.00
2018-06-18T15:28:09.116Z,76.00
2018-06-18T15:29:09.095Z,68.00
2018-06-18T15:30:09.226Z,76.00
2018-06-18T15:31:09.210Z,76.00
2018-06-18T15:32:09.039Z,84.00
2018-06-18T15:33:09.121Z,92.00
2018-06-18T15:34:08.904Z,84.00
2018-06-18T15:35:08.857Z,92.00
2018-06-18T15:36:08.839Z,92.00
2018-06-18T15:37:08.885Z,84.00
2018-06-18T15:38:08.769Z,92.00
2018-06-18T15:39:08.726Z,88.00
2018-06-18T15:40:08.737Z,84.00
2018-06-18T15:41:08.716Z,80.00
2018-06-18T15:42:08.765Z,84.00
2018-06-18T15:43:08.545Z,84.00
2018-06-18T15:44:08.656Z,92.00
2018-06-18T15:45:08.461Z,84.00
2018-06-18T15:46:08.860Z,80.00
2018-06-18T15:47:08.408Z,80.00
2018-06-18T15:48:08.527Z,80.00
2018-06-18T15:49:08.490Z,76.00
2018-06-18T15:50:08.768Z,72.00
2018-06-18T15:51:08.235Z,88.00
2018-06-18T15:52:08.162Z,44.00
2018-06-18T15:53:08.125Z,88.00
2018-06-18T15:54:08.966Z,92.00
